createdAt,value
2017-09-02T00:01:44.842Z,29.63
2017-09-02T00:04:12.460Z,35.47
2017-09-02T00:06:40.091Z,31.57
2017-09-02T00:09:07.703Z,31.60
2017-09-02T00:11:35.321Z,32.20
2017-09-02T00:14:02.921Z,28.60
2017-09-02T00:16:30.538Z,32.80
2017-09-02T00:18:58.147Z,31.10
2017-09-02T00:21:25.755Z,32.27
2017-09-02T00:23:53.421Z,34.00
2017-09-02T00:26:21.058Z,31.70
2017-09-02T00:28:48.717Z,39.10
2017-09-02T00:31:16.342Z,35.90
2017-09-02T00:33:43.961Z,28.67
2017-09-02T00:36:11.613Z,30.73
2017-09-02T00:38:39.280Z,32.70
2017-09-02T00:41:06.895Z,32.83
2017-09-02T00:43:34.522Z,30.77
2017-09-02T00:46:02.125Z,32.30
2017-09-02T00:48:29.742Z,32.43
2017-09-02T00:50:57.355Z,31.43
2017-09-02T00:53:24.967Z,35.10
2017-09-02T00:55:53.147Z,35.63
2017-09-02T00:58:20.768Z,29.47
2017-09-02T01:00:48.402Z,32.87
2017-09-02T01:03:16.050Z,32.00
2017-09-02T01:05:43.739Z,29.70
2017-09-02T01:08:11.366Z,31.10
2017-09-02T01:10:38.992Z,31.40
2017-09-02T01:13:06.621Z,29.23
2017-09-02T01:15:34.256Z,31.40
2017-09-02T01:18:01.843Z,33.63
2017-09-02T01:20:29.441Z,33.27
2017-09-02T01:22:57.087Z,32.17
2017-09-02T01:25:24.727Z,31.07
2017-09-02T01:27:52.362Z,32.00
2017-09-02T01:30:25.781Z,31.53
2017-09-02T01:32:53.418Z,33.57
2017-09-02T01:35:21.033Z,30.17
2017-09-02T01:37:48.647Z,32.00
2017-09-02T01:40:16.322Z,28.80
2017-09-02T01:42:44.622Z,27.40
2017-09-02T01:45:12.271Z,36.73
2017-09-02T01:47:39.927Z,31.80
2017-09-02T01:50:07.539Z,37.00
2017-09-02T01:52:35.154Z,35.07
2017-09-02T01:55:02.849Z,35.43
2017-09-02T01:57:30.454Z,33.50
2017-09-02T01:59:58.079Z,33.97
2017-09-02T02:02:26.275Z,32.47
2017-09-02T02:04:53.899Z,32.97
2017-09-02T02:07:21.524Z,30.60
2017-09-02T02:09:49.158Z,30.97
2017-09-02T02:12:16.767Z,31.67
2017-09-02T02:14:44.395Z,31.13
2017-09-02T02:17:12.037Z,31.80
2017-09-02T02:19:39.673Z,32.60
2017-09-02T02:22:07.287Z,31.33
2017-09-02T02:24:34.901Z,32.43
2017-09-02T02:27:02.508Z,34.17
2017-09-02T02:29:30.100Z,32.97
2017-09-02T02:31:57.718Z,38.33
2017-09-02T02:34:25.351Z,33.37
2017-09-02T02:36:52.965Z,31.20
2017-09-02T02:39:20.594Z,34.07
2017-09-02T02:41:48.272Z,34.67
2017-09-02T02:44:15.898Z,35.43
2017-09-02T02:46:43.519Z,31.63
2017-09-02T02:49:11.129Z,32.67
2017-09-02T02:51:38.736Z,32.13
2017-09-02T02:54:06.363Z,33.97
2017-09-02T02:56:33.991Z,28.97
2017-09-02T02:59:01.620Z,33.57
2017-09-02T03:01:29.250Z,32.07
2017-09-02T03:03:56.881Z,29.80
2017-09-02T03:06:24.503Z,34.13
2017-09-02T03:11:42.640Z,28.27
2017-09-02T03:14:10.248Z,30.77
2017-09-02T03:16:37.846Z,30.17
2017-09-02T03:19:05.486Z,27.67
2017-09-02T03:21:33.123Z,29.30
2017-09-02T03:24:00.725Z,30.97
2017-09-02T03:26:28.354Z,31.53
2017-09-02T03:28:56.848Z,36.70
2017-09-02T03:31:24.531Z,30.80
2017-09-02T03:33:52.154Z,34.60
2017-09-02T03:36:19.771Z,32.97
2017-09-02T03:38:47.413Z,33.90
2017-09-02T03:41:15.073Z,29.00
2017-09-02T03:43:42.765Z,34.03
2017-09-02T03:46:10.438Z,34.27
2017-09-02T03:48:38.088Z,29.47
2017-09-02T03:51:05.695Z,30.57
2017-09-02T03:53:36.628Z,31.60
2017-09-02T03:56:04.225Z,31.80
2017-09-02T03:58:31.833Z,32.70
2017-09-02T04:00:59.442Z,27.13
2017-09-02T04:03:27.043Z,29.90
2017-09-02T04:05:54.692Z,27.40
2017-09-02T04:08:22.329Z,30.10
2017-09-02T04:10:49.987Z,32.57
2017-09-02T04:13:17.602Z,28.83
2017-09-02T04:15:45.213Z,28.63
2017-09-02T04:18:12.812Z,35.43
2017-09-02T04:20:40.407Z,32.60
2017-09-02T04:23:08.902Z,29.53
2017-09-02T04:25:36.501Z,30.93
2017-09-02T04:28:04.102Z,31.60
2017-09-02T04:30:31.698Z,28.37
2017-09-02T04:32:59.435Z,27.20
2017-09-02T04:35:27.047Z,29.40
2017-09-02T04:37:54.713Z,27.80
2017-09-02T04:40:23.195Z,32.10
2017-09-02T04:42:50.821Z,24.80
2017-09-02T04:45:18.472Z,32.13
2017-09-02T04:47:46.084Z,29.27
2017-09-02T04:50:13.706Z,28.33
2017-09-02T04:52:41.319Z,30.87
2017-09-02T04:55:09.852Z,31.27
2017-09-02T04:57:37.462Z,32.47
2017-09-02T05:00:05.085Z,33.20
2017-09-02T05:02:32.714Z,34.40
2017-09-02T05:05:00.335Z,31.10
2017-09-02T05:07:27.941Z,30.93
2017-09-02T05:09:55.551Z,32.53
2017-09-02T05:12:23.435Z,33.77
2017-09-02T05:14:51.060Z,32.47
2017-09-02T05:17:18.687Z,35.63
2017-09-02T05:19:46.315Z,32.13
2017-09-02T05:22:13.935Z,34.80
2017-09-02T05:24:41.531Z,34.90
2017-09-02T05:27:09.165Z,32.70
2017-09-02T05:29:36.779Z,32.30
2017-09-02T05:32:04.430Z,30.47
2017-09-02T05:34:32.057Z,30.37
2017-09-02T05:36:59.681Z,30.97
2017-09-02T05:39:27.306Z,37.10
2017-09-02T05:41:54.934Z,30.97
2017-09-02T05:44:22.605Z,32.80
2017-09-02T05:46:50.269Z,33.43
2017-09-02T05:49:17.903Z,33.90
2017-09-02T05:51:45.502Z,30.00
2017-09-02T05:54:13.102Z,30.97
2017-09-02T05:56:40.744Z,32.73
2017-09-02T05:59:08.381Z,30.83
2017-09-02T06:01:35.990Z,32.00
2017-09-02T06:04:03.620Z,34.67
2017-09-02T06:06:31.292Z,34.77
2017-09-02T06:08:59.892Z,35.53
2017-09-02T06:11:27.518Z,35.40
2017-09-02T06:13:55.142Z,33.57
2017-09-02T06:16:22.740Z,34.67
2017-09-02T06:18:50.345Z,32.67
2017-09-02T06:21:17.968Z,33.80
2017-09-02T06:23:46.050Z,33.70
2017-09-02T06:26:13.667Z,30.03
2017-09-02T06:28:41.268Z,38.93
2017-09-02T06:31:08.918Z,34.20
2017-09-02T06:33:36.539Z,30.73
2017-09-02T06:36:04.138Z,34.10
2017-09-02T06:38:31.759Z,31.00
2017-09-02T06:40:59.482Z,30.53
2017-09-02T06:43:27.112Z,32.40
2017-09-02T06:45:54.748Z,34.00
2017-09-02T06:48:22.484Z,34.70
2017-09-02T06:50:50.106Z,31.80
2017-09-02T06:56:08.926Z,30.60
2017-09-02T06:58:36.537Z,31.23
2017-09-02T07:01:04.157Z,29.37
2017-09-02T07:03:31.770Z,29.90
2017-09-02T07:05:59.422Z,33.10
2017-09-02T07:08:27.057Z,30.60
2017-09-02T07:10:54.806Z,33.87
2017-09-02T07:13:22.411Z,28.27
2017-09-02T07:15:50.046Z,31.73
2017-09-02T07:18:17.660Z,28.40
2017-09-02T07:20:45.266Z,34.20
2017-09-02T07:23:13.751Z,30.20
2017-09-02T07:25:41.390Z,29.30
2017-09-02T07:28:09.020Z,29.73
2017-09-02T07:30:36.620Z,34.33
2017-09-02T07:33:04.260Z,32.13
2017-09-02T07:35:31.856Z,29.37
2017-09-02T07:37:59.498Z,29.33
2017-09-02T07:40:27.122Z,26.33
2017-09-02T07:42:55.459Z,25.90
2017-09-02T07:45:23.107Z,25.33
2017-09-02T07:47:50.736Z,29.80
2017-09-02T07:50:18.373Z,25.50
2017-09-02T07:52:45.987Z,21.57
2017-09-02T07:58:04.277Z,24.87
2017-09-02T08:03:22.382Z,21.77
2017-09-02T08:05:50.013Z,17.30
2017-09-02T08:08:17.760Z,16.63
2017-09-02T08:10:45.390Z,18.03
2017-09-02T08:13:13.008Z,19.57
2017-09-02T08:15:40.626Z,18.37
2017-09-02T08:18:08.211Z,19.57
2017-09-02T08:20:35.796Z,16.73
2017-09-02T08:23:03.398Z,16.03
2017-09-02T08:25:31.006Z,15.77
2017-09-02T08:27:58.615Z,13.63
2017-09-02T08:30:27.010Z,13.00
2017-09-02T08:32:54.680Z,9.10
2017-09-02T08:35:22.283Z,14.20
2017-09-02T08:37:50.166Z,10.47
2017-09-02T08:40:17.853Z,10.00
2017-09-02T08:42:45.452Z,11.27
2017-09-02T08:45:13.072Z,6.50
2017-09-02T08:47:40.703Z,6.33
2017-09-02T08:50:08.372Z,6.40
2017-09-02T08:52:36.037Z,9.37
2017-09-02T08:55:03.711Z,6.00
2017-09-02T08:57:31.315Z,6.00
2017-09-02T08:59:58.953Z,7.73
2017-09-02T09:02:26.543Z,7.60
2017-09-02T09:04:54.180Z,7.10
2017-09-02T09:07:21.804Z,9.73
2017-09-02T09:09:49.422Z,8.47
2017-09-02T09:12:17.049Z,10.83
2017-09-02T09:14:44.667Z,11.03
2017-09-02T09:17:12.276Z,9.30
2017-09-02T09:19:39.897Z,7.23
2017-09-02T09:22:07.514Z,8.93
2017-09-02T09:24:35.967Z,7.57
2017-09-02T09:27:03.631Z,8.30
2017-09-02T09:29:31.241Z,7.37
2017-09-02T09:31:58.844Z,6.97
2017-09-02T09:34:26.496Z,8.30
2017-09-02T09:36:54.138Z,6.40
2017-09-02T09:39:21.773Z,5.37
2017-09-02T09:41:49.624Z,5.53
2017-09-02T09:44:17.341Z,5.70
2017-09-02T09:46:44.965Z,8.57
2017-09-02T09:49:12.770Z,3.17
2017-09-02T09:51:40.396Z,3.60
2017-09-02T09:54:08.046Z,5.23
2017-09-02T09:56:35.676Z,2.40
2017-09-02T09:59:03.638Z,3.20
2017-09-02T10:01:31.285Z,4.83
2017-09-02T10:03:58.925Z,5.93
2017-09-02T10:06:26.542Z,1.87
2017-09-02T10:08:54.609Z,1.97
2017-09-02T10:11:22.210Z,3.73
2017-09-02T10:13:49.813Z,3.80
2017-09-02T10:16:17.449Z,2.20
2017-09-02T10:18:46.317Z,1.90
2017-09-02T10:21:13.932Z,5.33
2017-09-02T10:23:41.538Z,6.20
2017-09-02T10:26:09.232Z,2.67
2017-09-02T10:28:36.876Z,3.90
2017-09-02T10:31:04.486Z,2.50
2017-09-02T10:33:32.064Z,2.00
2017-09-02T10:35:59.690Z,2.10
2017-09-02T10:38:27.295Z,3.50
2017-09-02T10:43:45.853Z,2.80
2017-09-02T10:46:13.489Z,3.33
2017-09-02T10:48:41.099Z,3.63
2017-09-02T10:51:08.898Z,4.20
2017-09-02T10:53:36.597Z,4.10
2017-09-02T10:56:06.068Z,3.40
2017-09-02T10:58:33.675Z,3.47
2017-09-02T11:01:01.316Z,5.97
2017-09-02T11:03:29.685Z,3.13
2017-09-02T11:05:57.296Z,4.83
2017-09-02T11:08:24.913Z,5.73
2017-09-02T11:10:52.513Z,4.17
2017-09-02T11:13:20.104Z,4.00
2017-09-02T11:15:47.762Z,3.13
2017-09-02T11:18:15.428Z,5.23
2017-09-02T11:20:43.041Z,3.47
2017-09-02T11:23:14.995Z,2.80
2017-09-02T11:25:42.648Z,2.03
2017-09-02T11:28:10.244Z,2.33
2017-09-02T11:30:37.862Z,3.37
2017-09-02T11:33:06.228Z,2.03
2017-09-02T11:35:33.844Z,3.00
2017-09-02T11:38:02.376Z,1.90
2017-09-02T11:40:30.856Z,2.60
2017-09-02T11:42:58.521Z,4.00
2017-09-02T11:45:26.121Z,4.63
2017-09-02T11:47:53.710Z,1.80
2017-09-02T11:50:21.392Z,3.00
2017-09-02T11:52:49.009Z,2.80
2017-09-02T11:55:16.628Z,3.00
2017-09-02T11:57:44.405Z,3.93
2017-09-02T12:00:12.047Z,2.40
2017-09-02T12:02:39.674Z,3.13
2017-09-02T12:05:14.666Z,2.10
2017-09-02T12:07:42.310Z,6.60
2017-09-02T12:10:10.318Z,1.63
2017-09-02T12:12:37.916Z,2.83
2017-09-02T12:15:05.576Z,1.73
2017-09-02T12:17:33.209Z,1.57
2017-09-02T12:20:00.834Z,1.67
2017-09-02T12:22:28.508Z,1.97
2017-09-02T12:24:56.134Z,1.33
2017-09-02T12:27:23.754Z,3.30
2017-09-02T12:29:51.388Z,3.63
2017-09-02T12:32:19.023Z,2.50
2017-09-02T12:34:46.597Z,2.63
2017-09-02T12:37:14.985Z,2.50
2017-09-02T12:39:42.612Z,1.70
2017-09-02T12:42:11.193Z,1.90
2017-09-02T12:44:38.807Z,2.23
2017-09-02T12:47:06.468Z,1.83
2017-09-02T12:49:34.088Z,2.10
2017-09-02T12:52:01.700Z,2.73
2017-09-02T12:54:29.414Z,2.90
2017-09-02T12:56:57.037Z,2.77
2017-09-02T12:59:24.720Z,2.20
2017-09-02T13:01:52.337Z,2.40
2017-09-02T13:04:20.011Z,2.40
2017-09-02T13:06:47.684Z,3.63
2017-09-02T13:09:20.087Z,2.00
2017-09-02T13:11:47.694Z,2.17
2017-09-02T13:14:15.343Z,2.53
2017-09-02T13:16:43.940Z,2.53
2017-09-02T13:19:11.548Z,2.63
2017-09-02T13:21:39.155Z,2.07
2017-09-02T13:24:06.879Z,3.90
2017-09-02T13:26:34.509Z,2.57
2017-09-02T13:29:02.136Z,3.60
2017-09-02T13:31:29.748Z,3.00
2017-09-02T13:33:57.354Z,6.83
2017-09-02T13:36:25.011Z,4.13
2017-09-02T13:38:52.670Z,2.40
2017-09-02T13:41:21.153Z,1.93
2017-09-02T13:43:48.751Z,2.07
2017-09-02T13:46:16.367Z,4.67
2017-09-02T13:48:44.028Z,4.33
2017-09-02T13:51:12.234Z,3.63
2017-09-02T13:53:43.838Z,2.50
2017-09-02T13:56:11.566Z,1.70
2017-09-02T13:58:42.935Z,1.73
2017-09-02T14:01:10.560Z,2.23
2017-09-02T14:03:38.191Z,1.90
2017-09-02T14:06:05.811Z,1.87
2017-09-02T14:08:33.455Z,3.17
2017-09-02T14:11:01.076Z,1.70
2017-09-02T14:13:28.698Z,1.70
2017-09-02T14:15:56.291Z,1.50
2017-09-02T14:18:23.932Z,1.40
2017-09-02T14:20:51.526Z,2.50
2017-09-02T14:23:19.217Z,2.03
2017-09-02T14:25:46.880Z,2.43
2017-09-02T14:28:14.494Z,5.00
2017-09-02T14:30:42.166Z,3.60
2017-09-02T14:33:10.649Z,2.40
2017-09-02T14:35:38.229Z,2.43
2017-09-02T14:38:05.872Z,2.00
2017-09-02T14:40:33.478Z,1.73
2017-09-02T14:43:01.067Z,4.00
2017-09-02T14:45:29.570Z,5.60
2017-09-02T14:47:57.743Z,2.43
2017-09-02T14:50:25.355Z,2.03
2017-09-02T14:52:54.186Z,1.73
2017-09-02T14:55:21.776Z,2.73
2017-09-02T14:57:49.401Z,2.60
2017-09-02T15:00:17.026Z,4.77
2017-09-02T15:02:44.737Z,4.23
2017-09-02T15:05:12.368Z,3.43
2017-09-02T15:07:39.989Z,3.30
2017-09-02T15:10:07.594Z,3.87
2017-09-02T15:12:35.260Z,4.00
2017-09-02T15:15:02.864Z,2.80
2017-09-02T15:17:30.486Z,6.20
2017-09-02T15:19:58.176Z,9.13
2017-09-02T15:22:25.769Z,12.10
2017-09-02T15:24:53.399Z,7.80
2017-09-02T15:27:22.093Z,4.90
2017-09-02T15:29:50.044Z,5.27
2017-09-02T15:32:17.653Z,4.63
2017-09-02T15:34:45.266Z,5.00
2017-09-02T15:37:12.932Z,3.83
2017-09-02T15:39:40.714Z,6.33
2017-09-02T15:42:08.307Z,3.00
2017-09-02T15:44:35.925Z,4.43
2017-09-02T15:47:03.565Z,3.00
2017-09-02T15:49:31.871Z,7.37
2017-09-02T15:51:59.489Z,5.60
2017-09-02T15:54:27.136Z,3.10
2017-09-02T15:56:54.760Z,6.23
2017-09-02T15:59:23.145Z,4.80
2017-09-02T16:01:50.777Z,6.23
2017-09-02T16:04:18.464Z,2.47
2017-09-02T16:06:46.071Z,4.30
2017-09-02T16:09:14.214Z,6.83
2017-09-02T16:11:41.832Z,5.90
2017-09-02T16:14:09.425Z,4.50
2017-09-02T16:16:37.047Z,6.70
2017-09-02T16:19:04.644Z,4.30
2017-09-02T16:21:32.740Z,3.50
2017-09-02T16:24:00.362Z,2.40
2017-09-02T16:26:27.974Z,2.53
2017-09-02T16:28:56.521Z,2.63
2017-09-02T16:31:25.052Z,1.80
2017-09-02T16:33:52.668Z,3.00
2017-09-02T16:36:20.286Z,2.40
2017-09-02T16:38:47.872Z,2.00
2017-09-02T16:41:15.480Z,1.90
2017-09-02T16:43:43.097Z,2.50
2017-09-02T16:46:10.684Z,1.73
2017-09-02T16:48:38.306Z,2.30
2017-09-02T16:51:05.941Z,2.33
2017-09-02T16:53:33.674Z,1.43
2017-09-02T16:56:01.316Z,1.73
2017-09-02T16:58:28.959Z,3.87
2017-09-02T17:00:56.619Z,2.97
2017-09-02T17:03:24.274Z,1.30
2017-09-02T17:05:51.938Z,4.40
2017-09-02T17:08:19.600Z,3.37
2017-09-02T17:10:48.063Z,4.23
2017-09-02T17:13:15.720Z,3.33
2017-09-02T17:15:43.371Z,2.80
2017-09-02T17:18:11.022Z,2.53
2017-09-02T17:20:38.669Z,1.73
2017-09-02T17:23:06.317Z,2.40
2017-09-02T17:25:33.977Z,3.07
2017-09-02T17:28:02.511Z,2.90
2017-09-02T17:30:30.121Z,4.23
2017-09-02T17:32:57.771Z,3.60
2017-09-02T17:35:25.421Z,5.03
2017-09-02T17:37:53.021Z,7.47
2017-09-02T17:40:21.673Z,16.00
2017-09-02T17:42:49.352Z,3.10
2017-09-02T17:45:16.973Z,4.50
2017-09-02T17:47:44.594Z,3.97
2017-09-02T17:50:12.240Z,3.90
2017-09-02T17:52:39.831Z,4.93
2017-09-02T17:55:07.417Z,4.47
2017-09-02T17:57:35.055Z,5.20
2017-09-02T18:00:02.679Z,4.27
2017-09-02T18:02:30.290Z,6.03
2017-09-02T18:04:57.906Z,4.30
2017-09-02T18:07:25.787Z,3.00
2017-09-02T18:09:53.611Z,3.37
2017-09-02T18:12:21.267Z,2.30
2017-09-02T18:14:48.916Z,3.70
2017-09-02T18:17:16.789Z,6.20
2017-09-02T18:19:44.460Z,3.93
2017-09-02T18:22:12.085Z,3.03
2017-09-02T18:24:39.691Z,2.60
2017-09-02T18:27:07.330Z,2.50
2017-09-02T18:29:35.510Z,3.43
2017-09-02T18:32:03.125Z,3.57
2017-09-02T18:34:30.754Z,3.33
2017-09-02T18:36:58.423Z,4.93
2017-09-02T18:39:26.050Z,3.70
2017-09-02T18:41:53.657Z,4.03
2017-09-02T18:44:21.323Z,3.50
2017-09-02T18:46:48.959Z,3.07
2017-09-02T18:49:16.607Z,5.53
2017-09-02T18:51:44.979Z,3.97
2017-09-02T18:54:12.679Z,4.80
2017-09-02T18:56:40.303Z,4.77
2017-09-02T18:59:07.908Z,3.33
2017-09-02T19:01:35.556Z,3.60
2017-09-02T19:04:03.187Z,4.30
2017-09-02T19:06:31.729Z,5.53
2017-09-02T19:08:59.382Z,7.43
2017-09-02T19:14:36.178Z,15.30
2017-09-02T19:17:03.837Z,7.37
2017-09-02T19:19:31.482Z,8.50
2017-09-02T19:21:59.092Z,6.27
2017-09-02T19:24:26.691Z,5.23
2017-09-02T19:26:54.365Z,9.47
2017-09-02T19:29:21.974Z,12.93
2017-09-02T19:31:49.581Z,11.63
2017-09-02T19:34:17.186Z,10.20
2017-09-02T19:36:44.811Z,9.43
2017-09-02T19:39:12.394Z,6.40
2017-09-02T19:41:40.041Z,5.93
2017-09-02T19:44:07.642Z,9.80
2017-09-02T19:46:35.239Z,6.90
2017-09-02T19:49:02.866Z,9.47
2017-09-02T19:51:30.455Z,8.30
2017-09-02T19:53:58.055Z,8.83
2017-09-02T19:56:25.694Z,13.03
2017-09-02T19:58:53.324Z,10.83
2017-09-02T20:01:21.755Z,9.43
2017-09-02T20:03:49.380Z,10.00
2017-09-02T20:06:17.013Z,7.30
2017-09-02T20:08:44.655Z,6.00
2017-09-02T20:11:12.320Z,6.70
2017-09-02T20:13:40.866Z,7.40
2017-09-02T20:16:08.483Z,8.43
2017-09-02T20:21:26.411Z,7.97
2017-09-02T20:23:54.042Z,6.93
2017-09-02T20:26:21.766Z,6.67
2017-09-02T20:28:49.434Z,6.23
2017-09-02T20:31:17.054Z,7.23
2017-09-02T20:33:44.688Z,8.57
2017-09-02T20:36:12.346Z,6.80
2017-09-02T20:38:46.541Z,7.23
2017-09-02T20:41:14.203Z,7.20
2017-09-02T20:43:41.826Z,6.10
2017-09-02T20:46:09.429Z,6.57
2017-09-02T20:48:37.992Z,10.60
2017-09-02T20:51:05.827Z,5.47
2017-09-02T20:53:33.436Z,8.93
2017-09-02T20:56:01.043Z,14.00
2017-09-02T20:58:28.740Z,13.67
2017-09-02T21:00:56.341Z,7.77
2017-09-02T21:03:23.965Z,12.20
2017-09-02T21:05:51.613Z,7.83
2017-09-02T21:08:19.214Z,8.00
2017-09-02T21:10:46.833Z,7.10
2017-09-02T21:13:14.509Z,8.23
2017-09-02T21:15:42.160Z,6.83
2017-09-02T21:18:10.504Z,6.07
2017-09-02T21:20:38.110Z,7.00
2017-09-02T21:23:05.872Z,9.20
2017-09-02T21:25:33.476Z,5.70
2017-09-02T21:28:01.120Z,7.40
2017-09-02T21:30:28.732Z,13.70
2017-09-02T21:32:56.346Z,12.53
2017-09-02T21:35:23.955Z,5.97
2017-09-02T21:37:51.555Z,8.87
2017-09-02T21:40:19.934Z,10.53
2017-09-02T21:42:47.536Z,7.97
2017-09-02T21:45:15.156Z,5.40
2017-09-02T21:47:42.784Z,9.97
2017-09-02T21:50:10.384Z,9.40
2017-09-02T21:52:38.006Z,7.60
2017-09-02T21:55:06.222Z,7.20
2017-09-02T21:57:34.057Z,7.00
2017-09-02T22:00:01.651Z,8.27
2017-09-02T22:02:29.290Z,13.07
2017-09-02T22:04:56.956Z,13.33
2017-09-02T22:07:24.625Z,13.33
2017-09-02T22:09:52.270Z,7.57
2017-09-02T22:12:19.928Z,6.57
2017-09-02T22:14:47.578Z,9.77
2017-09-02T22:17:15.176Z,6.03
2017-09-02T22:19:42.799Z,12.27
2017-09-02T22:22:10.422Z,7.97
2017-09-02T22:24:38.016Z,9.67
2017-09-02T22:27:05.661Z,7.30
2017-09-02T22:29:33.307Z,9.17
2017-09-02T22:32:00.923Z,7.60
2017-09-02T22:34:28.530Z,6.20
2017-09-02T22:36:56.146Z,10.00
2017-09-02T22:39:23.740Z,9.40
2017-09-02T22:41:51.374Z,8.07
2017-09-02T22:44:18.964Z,9.10
2017-09-02T22:46:46.548Z,6.93
2017-09-02T22:49:14.177Z,7.93
2017-09-02T22:51:41.824Z,6.73
2017-09-02T22:54:09.443Z,8.53
2017-09-02T22:56:37.044Z,8.20
2017-09-02T22:59:04.668Z,9.90
2017-09-02T23:01:32.303Z,8.53
2017-09-02T23:03:59.908Z,8.90
2017-09-02T23:06:27.504Z,9.70
2017-09-02T23:08:55.119Z,7.77
2017-09-02T23:11:22.732Z,7.63
2017-09-02T23:13:50.374Z,7.53
2017-09-02T23:16:18.021Z,8.50
2017-09-02T23:18:45.637Z,6.27
2017-09-02T23:21:13.265Z,9.73
2017-09-02T23:23:40.951Z,7.43
2017-09-02T23:26:08.605Z,8.40
2017-09-02T23:28:36.222Z,7.40
2017-09-02T23:31:03.827Z,9.60
2017-09-02T23:33:31.515Z,11.07
2017-09-02T23:35:59.221Z,10.30
2017-09-02T23:38:26.830Z,8.67
2017-09-02T23:40:54.483Z,8.57
2017-09-02T23:43:22.097Z,6.50
2017-09-02T23:45:50.362Z,7.50
2017-09-02T23:48:18.008Z,10.80
2017-09-02T23:50:45.618Z,9.07
2017-09-02T23:53:13.235Z,6.37
2017-09-02T23:55:40.840Z,10.53
2017-09-02T23:58:08.450Z,7.03
